sensor_id;sensor_type;location;lat;lon;timestamp;P1;durP1;ratioP1;P2;durP2;ratioP2
10851;SDS011;5479;52.046;6.314;2022-08-02T00:01:05;6.07;;;3.23;;
10851;SDS011;5479;52.046;6.314;2022-08-02T00:03:33;6.00;;;3.13;;
10851;SDS011;5479;52.046;6.314;2022-08-02T00:06:01;6.27;;;3.07;;
10851;SDS011;5479;52.046;6.314;2022-08-02T00:08:28;6.53;;;3.43;;
10851;SDS011;5479;52.046;6.314;2022-08-02T00:10:56;6.67;;;3.33;;
10851;SDS011;5479;52.046;6.314;2022-08-02T00:13:24;7.67;;;2.97;;
10851;SDS011;5479;52.046;6.314;2022-08-02T00:15:53;6.40;;;3.10;;
10851;SDS011;5479;52.046;6.314;2022-08-02T00:18:21;4.67;;;2.60;;
10851;SDS011;5479;52.046;6.314;2022-08-02T00:20:49;5.13;;;2.80;;
10851;SDS011;5479;52.046;6.314;2022-08-02T00:23:17;5.00;;;2.90;;
10851;SDS011;5479;52.046;6.314;2022-08-02T00:25:45;6.63;;;3.00;;
10851;SDS011;5479;52.046;6.314;2022-08-02T00:28:13;8.23;;;2.80;;
10851;SDS011;5479;52.046;6.314;2022-08-02T00:30:41;4.27;;;2.70;;
10851;SDS011;5479;52.046;6.314;2022-08-02T00:33:10;5.30;;;3.00;;
10851;SDS011;5479;52.046;6.314;2022-08-02T00:35:38;5.80;;;2.83;;
10851;SDS011;5479;52.046;6.314;2022-08-02T00:38:06;6.53;;;2.93;;
10851;SDS011;5479;52.046;6.314;2022-08-02T00:40:33;5.67;;;2.77;;
10851;SDS011;5479;52.046;6.314;2022-08-02T00:43:02;6.73;;;2.90;;
10851;SDS011;5479;52.046;6.314;2022-08-02T00:45:32;5.40;;;2.83;;
10851;SDS011;5479;52.046;6.314;2022-08-02T00:48:02;6.00;;;2.97;;
10851;SDS011;5479;52.046;6.314;2022-08-02T00:50:32;4.87;;;2.97;;
10851;SDS011;5479;52.046;6.314;2022-08-02T00:53:01;6.27;;;2.90;;
10851;SDS011;5479;52.046;6.314;2022-08-02T00:55:29;5.70;;;3.10;;
10851;SDS011;5479;52.046;6.314;2022-08-02T00:57:58;8.17;;;3.17;;
10851;SDS011;5479;52.046;6.314;2022-08-02T01:00:26;7.30;;;3.57;;
10851;SDS011;5479;52.046;6.314;2022-08-02T01:02:54;6.93;;;3.30;;
10851;SDS011;5479;52.046;6.314;2022-08-02T01:05:22;6.67;;;3.37;;
10851;SDS011;5479;52.046;6.314;2022-08-02T01:07:52;5.30;;;3.47;;
10851;SDS011;5479;52.046;6.314;2022-08-02T01:10:19;6.70;;;3.10;;
10851;SDS011;5479;52.046;6.314;2022-08-02T01:12:47;6.47;;;3.00;;
10851;SDS011;5479;52.046;6.314;2022-08-02T01:15:15;6.20;;;2.93;;
10851;SDS011;5479;52.046;6.314;2022-08-02T01:17:46;6.63;;;3.10;;
10851;SDS011;5479;52.046;6.314;2022-08-02T01:20:36;6.20;;;3.20;;
10851;SDS011;5479;52.046;6.314;2022-08-02T01:23:32;7.33;;;3.33;;
10851;SDS011;5479;52.046;6.314;2022-08-02T01:26:17;6.73;;;3.53;;
10851;SDS011;5479;52.046;6.314;2022-08-02T01:28:57;6.33;;;3.20;;
10851;SDS011;5479;52.046;6.314;2022-08-02T01:31:32;5.90;;;3.47;;
10851;SDS011;5479;52.046;6.314;2022-08-02T01:34:03;7.20;;;3.47;;
10851;SDS011;5479;52.046;6.314;2022-08-02T01:36:37;5.40;;;3.20;;
10851;SDS011;5479;52.046;6.314;2022-08-02T01:39:06;5.93;;;3.20;;
10851;SDS011;5479;52.046;6.314;2022-08-02T01:41:37;7.20;;;3.60;;
10851;SDS011;5479;52.046;6.314;2022-08-02T01:44:09;5.57;;;3.23;;
10851;SDS011;5479;52.046;6.314;2022-08-02T01:46:40;7.23;;;3.37;;
10851;SDS011;5479;52.046;6.314;2022-08-02T01:49:11;5.50;;;3.30;;
10851;SDS011;5479;52.046;6.314;2022-08-02T01:51:44;5.20;;;3.00;;
10851;SDS011;5479;52.046;6.314;2022-08-02T01:54:32;5.23;;;3.03;;
10851;SDS011;5479;52.046;6.314;2022-08-02T01:57:04;5.50;;;3.03;;
10851;SDS011;5479;52.046;6.314;2022-08-02T01:59:36;7.23;;;3.10;;
10851;SDS011;5479;52.046;6.314;2022-08-02T02:02:07;5.43;;;3.10;;
10851;SDS011;5479;52.046;6.314;2022-08-02T02:04:36;5.83;;;3.07;;
10851;SDS011;5479;52.046;6.314;2022-08-02T02:07:05;4.90;;;3.17;;
10851;SDS011;5479;52.046;6.314;2022-08-02T02:09:36;5.43;;;3.23;;
10851;SDS011;5479;52.046;6.314;2022-08-02T02:12:05;5.60;;;3.27;;
10851;SDS011;5479;52.046;6.314;2022-08-02T02:14:36;4.80;;;3.20;;
10851;SDS011;5479;52.046;6.314;2022-08-02T02:17:05;6.20;;;3.47;;
10851;SDS011;5479;52.046;6.314;2022-08-02T02:19:35;6.23;;;3.10;;
10851;SDS011;5479;52.046;6.314;2022-08-02T02:22:04;5.77;;;3.20;;
10851;SDS011;5479;52.046;6.314;2022-08-02T02:24:32;4.90;;;3.20;;
10851;SDS011;5479;52.046;6.314;2022-08-02T02:27:00;4.83;;;3.30;;
10851;SDS011;5479;52.046;6.314;2022-08-02T02:29:30;6.63;;;3.43;;
10851;SDS011;5479;52.046;6.314;2022-08-02T02:32:01;6.10;;;3.23;;
10851;SDS011;5479;52.046;6.314;2022-08-02T02:34:33;6.63;;;3.23;;
10851;SDS011;5479;52.046;6.314;2022-08-02T02:37:07;5.70;;;3.50;;
10851;SDS011;5479;52.046;6.314;2022-08-02T02:39:40;7.13;;;3.27;;
10851;SDS011;5479;52.046;6.314;2022-08-02T02:42:12;7.17;;;3.60;;
10851;SDS011;5479;52.046;6.314;2022-08-02T02:44:43;6.20;;;3.37;;
10851;SDS011;5479;52.046;6.314;2022-08-02T02:47:15;5.83;;;3.47;;
10851;SDS011;5479;52.046;6.314;2022-08-02T02:49:45;5.87;;;3.60;;
10851;SDS011;5479;52.046;6.314;2022-08-02T02:52:14;6.77;;;3.47;;
10851;SDS011;5479;52.046;6.314;2022-08-02T02:54:44;6.10;;;3.47;;
10851;SDS011;5479;52.046;6.314;2022-08-02T02:57:14;5.27;;;3.63;;
10851;SDS011;5479;52.046;6.314;2022-08-02T02:59:43;7.90;;;3.93;;
10851;SDS011;5479;52.046;6.314;2022-08-02T03:02:11;5.53;;;3.60;;
10851;SDS011;5479;52.046;6.314;2022-08-02T03:04:41;5.77;;;3.97;;
10851;SDS011;5479;52.046;6.314;2022-08-02T03:07:11;6.10;;;4.00;;
10851;SDS011;5479;52.046;6.314;2022-08-02T03:09:38;5.97;;;3.87;;
10851;SDS011;5479;52.046;6.314;2022-08-02T03:12:06;5.43;;;3.53;;
10851;SDS011;5479;52.046;6.314;2022-08-02T03:14:39;5.40;;;3.07;;
10851;SDS011;5479;52.046;6.314;2022-08-02T03:17:08;7.33;;;3.80;;
10851;SDS011;5479;52.046;6.314;2022-08-02T03:19:36;6.63;;;3.93;;
10851;SDS011;5479;52.046;6.314;2022-08-02T03:22:05;6.50;;;3.87;;
10851;SDS011;5479;52.046;6.314;2022-08-02T03:24:33;6.47;;;3.77;;
10851;SDS011;5479;52.046;6.314;2022-08-02T03:27:01;5.97;;;3.80;;
10851;SDS011;5479;52.046;6.314;2022-08-02T03:29:28;7.23;;;4.20;;
10851;SDS011;5479;52.046;6.314;2022-08-02T03:31:56;6.93;;;4.23;;
10851;SDS011;5479;52.046;6.314;2022-08-02T03:34:24;6.47;;;4.40;;
10851;SDS011;5479;52.046;6.314;2022-08-02T03:36:53;6.83;;;3.90;;
10851;SDS011;5479;52.046;6.314;2022-08-02T03:39:24;5.77;;;3.40;;
10851;SDS011;5479;52.046;6.314;2022-08-02T03:41:53;8.87;;;4.47;;
10851;SDS011;5479;52.046;6.314;2022-08-02T03:44:21;7.80;;;4.67;;
10851;SDS011;5479;52.046;6.314;2022-08-02T03:46:50;6.70;;;4.60;;
10851;SDS011;5479;52.046;6.314;2022-08-02T03:49:19;8.80;;;4.70;;
10851;SDS011;5479;52.046;6.314;2022-08-02T03:51:47;6.07;;;4.27;;
10851;SDS011;5479;52.046;6.314;2022-08-02T03:54:16;6.07;;;4.07;;
10851;SDS011;5479;52.046;6.314;2022-08-02T03:56:46;7.37;;;4.20;;
10851;SDS011;5479;52.046;6.314;2022-08-02T03:59:14;7.07;;;4.93;;
10851;SDS011;5479;52.046;6.314;2022-08-02T04:01:42;6.83;;;4.40;;
10851;SDS011;5479;52.046;6.314;2022-08-02T04:04:12;7.63;;;4.90;;
10851;SDS011;5479;52.046;6.314;2022-08-02T04:06:40;7.40;;;4.07;;
10851;SDS011;5479;52.046;6.314;2022-08-02T04:09:08;7.27;;;4.37;;
10851;SDS011;5479;52.046;6.314;2022-08-02T04:11:36;6.83;;;4.50;;
10851;SDS011;5479;52.046;6.314;2022-08-02T04:14:06;7.93;;;4.90;;
10851;SDS011;5479;52.046;6.314;2022-08-02T04:16:37;8.00;;;4.80;;
10851;SDS011;5479;52.046;6.314;2022-08-02T04:19:09;9.87;;;5.40;;
10851;SDS011;5479;52.046;6.314;2022-08-02T04:21:42;7.80;;;5.47;;
10851;SDS011;5479;52.046;6.314;2022-08-02T04:24:12;8.53;;;6.30;;
10851;SDS011;5479;52.046;6.314;2022-08-02T04:26:43;8.80;;;6.10;;
10851;SDS011;5479;52.046;6.314;2022-08-02T04:29:12;10.60;;;6.80;;
10851;SDS011;5479;52.046;6.314;2022-08-02T04:31:41;11.23;;;7.33;;
10851;SDS011;5479;52.046;6.314;2022-08-02T04:34:09;9.13;;;6.93;;
10851;SDS011;5479;52.046;6.314;2022-08-02T04:36:38;12.10;;;7.43;;
10851;SDS011;5479;52.046;6.314;2022-08-02T04:39:06;10.47;;;7.43;;
10851;SDS011;5479;52.046;6.314;2022-08-02T04:41:38;10.70;;;6.70;;
10851;SDS011;5479;52.046;6.314;2022-08-02T04:44:06;11.20;;;7.33;;
10851;SDS011;5479;52.046;6.314;2022-08-02T04:46:35;12.17;;;7.07;;
10851;SDS011;5479;52.046;6.314;2022-08-02T04:49:03;9.80;;;7.10;;
10851;SDS011;5479;52.046;6.314;2022-08-02T04:51:32;9.87;;;7.03;;
10851;SDS011;5479;52.046;6.314;2022-08-02T04:54:01;10.53;;;7.07;;
10851;SDS011;5479;52.046;6.314;2022-08-02T04:56:29;10.27;;;7.47;;
10851;SDS011;5479;52.046;6.314;2022-08-02T04:58:56;11.93;;;6.90;;
10851;SDS011;5479;52.046;6.314;2022-08-02T05:01:24;9.33;;;6.87;;
10851;SDS011;5479;52.046;6.314;2022-08-02T05:03:53;9.80;;;7.60;;
10851;SDS011;5479;52.046;6.314;2022-08-02T05:06:22;10.37;;;7.23;;
10851;SDS011;5479;52.046;6.314;2022-08-02T05:08:49;9.67;;;7.30;;
10851;SDS011;5479;52.046;6.314;2022-08-02T05:11:17;9.70;;;7.00;;
10851;SDS011;5479;52.046;6.314;2022-08-02T05:13:45;10.67;;;6.97;;
10851;SDS011;5479;52.046;6.314;2022-08-02T05:16:13;12.10;;;7.37;;
10851;SDS011;5479;52.046;6.314;2022-08-02T05:18:41;9.43;;;7.50;;
10851;SDS011;5479;52.046;6.314;2022-08-02T05:21:10;11.43;;;7.50;;
10851;SDS011;5479;52.046;6.314;2022-08-02T05:23:38;12.57;;;7.93;;
10851;SDS011;5479;52.046;6.314;2022-08-02T05:26:06;9.50;;;7.13;;
10851;SDS011;5479;52.046;6.314;2022-08-02T05:28:34;10.67;;;8.03;;
10851;SDS011;5479;52.046;6.314;2022-08-02T05:31:02;11.67;;;7.97;;
10851;SDS011;5479;52.046;6.314;2022-08-02T05:33:29;10.37;;;8.33;;
10851;SDS011;5479;52.046;6.314;2022-08-02T05:35:58;10.00;;;7.53;;
10851;SDS011;5479;52.046;6.314;2022-08-02T05:38:27;13.67;;;7.80;;
10851;SDS011;5479;52.046;6.314;2022-08-02T05:40:57;11.33;;;7.67;;
10851;SDS011;5479;52.046;6.314;2022-08-02T05:43:25;10.70;;;8.13;;
10851;SDS011;5479;52.046;6.314;2022-08-02T05:45:53;10.17;;;7.43;;
10851;SDS011;5479;52.046;6.314;2022-08-02T05:48:21;10.97;;;7.60;;
10851;SDS011;5479;52.046;6.314;2022-08-02T05:50:51;12.47;;;7.80;;
10851;SDS011;5479;52.046;6.314;2022-08-02T05:53:23;11.47;;;7.57;;
10851;SDS011;5479;52.046;6.314;2022-08-02T05:56:02;10.73;;;8.20;;
10851;SDS011;5479;52.046;6.314;2022-08-02T05:58:39;10.37;;;7.30;;
10851;SDS011;5479;52.046;6.314;2022-08-02T06:01:13;13.50;;;7.50;;
10851;SDS011;5479;52.046;6.314;2022-08-02T06:03:50;11.83;;;7.40;;
10851;SDS011;5479;52.046;6.314;2022-08-02T06:06:19;11.87;;;8.03;;
10851;SDS011;5479;52.046;6.314;2022-08-02T06:08:52;11.27;;;7.17;;
10851;SDS011;5479;52.046;6.314;2022-08-02T06:11:28;9.57;;;6.90;;
10851;SDS011;5479;52.046;6.314;2022-08-02T06:14:01;11.17;;;6.90;;
10851;SDS011;5479;52.046;6.314;2022-08-02T06:16:30;11.37;;;7.03;;
10851;SDS011;5479;52.046;6.314;2022-08-02T06:18:59;11.97;;;7.70;;
10851;SDS011;5479;52.046;6.314;2022-08-02T06:21:28;13.00;;;7.73;;
10851;SDS011;5479;52.046;6.314;2022-08-02T06:23:58;11.67;;;7.43;;
10851;SDS011;5479;52.046;6.314;2022-08-02T06:26:26;11.13;;;8.17;;
10851;SDS011;5479;52.046;6.314;2022-08-02T06:28:55;10.47;;;6.97;;
10851;SDS011;5479;52.046;6.314;2022-08-02T06:31:24;11.43;;;7.17;;
10851;SDS011;5479;52.046;6.314;2022-08-02T06:33:52;9.93;;;7.43;;
10851;SDS011;5479;52.046;6.314;2022-08-02T06:36:21;11.30;;;7.40;;
10851;SDS011;5479;52.046;6.314;2022-08-02T06:39:00;9.67;;;6.83;;
10851;SDS011;5479;52.046;6.314;2022-08-02T06:41:33;11.20;;;7.30;;
10851;SDS011;5479;52.046;6.314;2022-08-02T06:44:07;11.90;;;7.40;;
10851;SDS011;5479;52.046;6.314;2022-08-02T06:46:36;12.25;;;7.13;;
10851;SDS011;5479;52.046;6.314;2022-08-02T06:49:04;10.75;;;6.55;;
10851;SDS011;5479;52.046;6.314;2022-08-02T06:51:32;10.98;;;7.00;;
10851;SDS011;5479;52.046;6.314;2022-08-02T06:54:02;11.23;;;6.93;;
10851;SDS011;5479;52.046;6.314;2022-08-02T06:56:30;9.45;;;5.85;;
10851;SDS011;5479;52.046;6.314;2022-08-02T06:58:58;8.60;;;5.93;;
10851;SDS011;5479;52.046;6.314;2022-08-02T07:01:25;8.25;;;5.78;;
10851;SDS011;5479;52.046;6.314;2022-08-02T07:03:53;9.10;;;6.00;;
10851;SDS011;5479;52.046;6.314;2022-08-02T07:06:21;9.98;;;6.18;;
10851;SDS011;5479;52.046;6.314;2022-08-02T07:08:49;10.48;;;6.43;;
10851;SDS011;5479;52.046;6.314;2022-08-02T07:11:18;8.25;;;5.80;;
10851;SDS011;5479;52.046;6.314;2022-08-02T07:13:46;11.25;;;5.97;;
10851;SDS011;5479;52.046;6.314;2022-08-02T07:16:14;11.15;;;6.40;;
10851;SDS011;5479;52.046;6.314;2022-08-02T07:18:42;10.35;;;6.25;;
10851;SDS011;5479;52.046;6.314;2022-08-02T07:21:10;10.82;;;6.32;;
10851;SDS011;5479;52.046;6.314;2022-08-02T07:23:37;8.05;;;5.93;;
10851;SDS011;5479;52.046;6.314;2022-08-02T07:26:05;12.13;;;6.05;;
10851;SDS011;5479;52.046;6.314;2022-08-02T07:28:34;10.23;;;5.78;;
10851;SDS011;5479;52.046;6.314;2022-08-02T07:31:02;9.48;;;6.38;;
10851;SDS011;5479;52.046;6.314;2022-08-02T07:33:30;11.57;;;6.35;;
10851;SDS011;5479;52.046;6.314;2022-08-02T07:35:58;7.93;;;5.93;;
10851;SDS011;5479;52.046;6.314;2022-08-02T07:38:28;8.57;;;5.80;;
10851;SDS011;5479;52.046;6.314;2022-08-02T07:40:56;9.48;;;5.50;;
10851;SDS011;5479;52.046;6.314;2022-08-02T07:43:24;7.18;;;5.07;;
10851;SDS011;5479;52.046;6.314;2022-08-02T07:45:53;10.02;;;5.78;;
10851;SDS011;5479;52.046;6.314;2022-08-02T07:48:21;9.00;;;5.60;;
10851;SDS011;5479;52.046;6.314;2022-08-02T07:50:48;10.02;;;5.90;;
10851;SDS011;5479;52.046;6.314;2022-08-02T07:53:16;9.13;;;5.72;;
10851;SDS011;5479;52.046;6.314;2022-08-02T07:55:45;10.18;;;6.30;;
10851;SDS011;5479;52.046;6.314;2022-08-02T07:58:13;7.72;;;5.88;;
10851;SDS011;5479;52.046;6.314;2022-08-02T08:00:42;8.75;;;5.10;;
10851;SDS011;5479;52.046;6.314;2022-08-02T08:03:11;9.85;;;7.20;;
10851;SDS011;5479;52.046;6.314;2022-08-02T08:05:39;14.43;;;6.65;;
10851;SDS011;5479;52.046;6.314;2022-08-02T08:08:07;6.90;;;5.10;;
10851;SDS011;5479;52.046;6.314;2022-08-02T08:10:35;8.18;;;5.50;;
10851;SDS011;5479;52.046;6.314;2022-08-02T08:13:03;7.82;;;5.10;;
10851;SDS011;5479;52.046;6.314;2022-08-02T08:15:31;6.43;;;3.95;;
10851;SDS011;5479;52.046;6.314;2022-08-02T08:17:59;8.85;;;4.20;;
10851;SDS011;5479;52.046;6.314;2022-08-02T08:20:28;8.00;;;4.68;;
10851;SDS011;5479;52.046;6.314;2022-08-02T08:22:56;9.13;;;4.40;;
10851;SDS011;5479;52.046;6.314;2022-08-02T08:25:23;9.13;;;4.60;;
10851;SDS011;5479;52.046;6.314;2022-08-02T08:27:51;10.15;;;4.72;;
10851;SDS011;5479;52.046;6.314;2022-08-02T08:30:20;7.93;;;4.70;;
10851;SDS011;5479;52.046;6.314;2022-08-02T08:32:48;8.45;;;4.57;;
10851;SDS011;5479;52.046;6.314;2022-08-02T08:35:16;7.72;;;4.68;;
10851;SDS011;5479;52.046;6.314;2022-08-02T08:37:45;6.93;;;4.15;;
10851;SDS011;5479;52.046;6.314;2022-08-02T08:40:13;9.30;;;4.65;;
10851;SDS011;5479;52.046;6.314;2022-08-02T08:42:41;10.77;;;5.28;;
10851;SDS011;5479;52.046;6.314;2022-08-02T08:45:09;7.43;;;5.00;;
10851;SDS011;5479;52.046;6.314;2022-08-02T08:47:38;8.75;;;5.80;;
10851;SDS011;5479;52.046;6.314;2022-08-02T08:50:08;7.47;;;5.07;;
10851;SDS011;5479;52.046;6.314;2022-08-02T08:52:40;8.27;;;5.57;;
10851;SDS011;5479;52.046;6.314;2022-08-02T08:55:10;6.47;;;5.00;;
10851;SDS011;5479;52.046;6.314;2022-08-02T08:57:41;7.57;;;4.30;;
10851;SDS011;5479;52.046;6.314;2022-08-02T09:00:11;9.43;;;4.57;;
10851;SDS011;5479;52.046;6.314;2022-08-02T09:02:41;8.90;;;5.13;;
10851;SDS011;5479;52.046;6.314;2022-08-02T09:05:10;8.13;;;4.80;;
10851;SDS011;5479;52.046;6.314;2022-08-02T09:07:40;8.95;;;4.57;;
10851;SDS011;5479;52.046;6.314;2022-08-02T09:13:10;7.78;;;3.72;;
10851;SDS011;5479;52.046;6.314;2022-08-02T09:15:41;6.70;;;3.97;;
10851;SDS011;5479;52.046;6.314;2022-08-02T09:18:10;6.47;;;3.78;;
10851;SDS011;5479;52.046;6.314;2022-08-02T09:20:52;7.55;;;4.47;;
10851;SDS011;5479;52.046;6.314;2022-08-02T09:23:22;6.82;;;4.13;;
10851;SDS011;5479;52.046;6.314;2022-08-02T09:25:58;8.35;;;4.00;;
10851;SDS011;5479;52.046;6.314;2022-08-02T09:28:28;8.48;;;3.97;;
10851;SDS011;5479;52.046;6.314;2022-08-02T09:31:05;4.97;;;3.55;;
10851;SDS011;5479;52.046;6.314;2022-08-02T09:33:34;7.00;;;3.65;;
10851;SDS011;5479;52.046;6.314;2022-08-02T09:36:03;5.25;;;3.60;;
10851;SDS011;5479;52.046;6.314;2022-08-02T09:38:32;5.55;;;3.20;;
10851;SDS011;5479;52.046;6.314;2022-08-02T09:41:03;7.65;;;4.10;;
10851;SDS011;5479;52.046;6.314;2022-08-02T09:43:35;6.10;;;4.13;;
10851;SDS011;5479;52.046;6.314;2022-08-02T09:46:11;6.63;;;3.90;;
10851;SDS011;5479;52.046;6.314;2022-08-02T09:48:48;8.73;;;4.22;;
10851;SDS011;5479;52.046;6.314;2022-08-02T09:51:17;7.80;;;4.90;;
10851;SDS011;5479;52.046;6.314;2022-08-02T09:53:50;7.55;;;5.07;;
10851;SDS011;5479;52.046;6.314;2022-08-02T09:56:21;6.90;;;4.82;;
10851;SDS011;5479;52.046;6.314;2022-08-02T09:58:50;8.00;;;4.82;;
10851;SDS011;5479;52.046;6.314;2022-08-02T10:01:20;7.93;;;4.60;;
10851;SDS011;5479;52.046;6.314;2022-08-02T10:03:57;7.40;;;5.13;;
10851;SDS011;5479;52.046;6.314;2022-08-02T10:06:26;6.97;;;4.22;;
10851;SDS011;5479;52.046;6.314;2022-08-02T10:08:55;6.53;;;4.07;;
10851;SDS011;5479;52.046;6.314;2022-08-02T10:11:25;9.27;;;4.80;;
10851;SDS011;5479;52.046;6.314;2022-08-02T10:13:54;6.82;;;3.92;;
10851;SDS011;5479;52.046;6.314;2022-08-02T10:16:22;7.75;;;4.63;;
10851;SDS011;5479;52.046;6.314;2022-08-02T10:18:51;5.25;;;3.65;;
10851;SDS011;5479;52.046;6.314;2022-08-02T10:21:21;5.93;;;3.17;;
10851;SDS011;5479;52.046;6.314;2022-08-02T10:23:57;6.97;;;3.42;;
10851;SDS011;5479;52.046;6.314;2022-08-02T10:26:32;5.97;;;3.13;;
10851;SDS011;5479;52.046;6.314;2022-08-02T10:29:00;7.72;;;3.88;;
10851;SDS011;5479;52.046;6.314;2022-08-02T10:31:31;6.80;;;3.47;;
10851;SDS011;5479;52.046;6.314;2022-08-02T10:34:03;7.07;;;3.40;;
10851;SDS011;5479;52.046;6.314;2022-08-02T10:36:37;5.53;;;3.78;;
10851;SDS011;5479;52.046;6.314;2022-08-02T10:39:07;5.75;;;3.42;;
10851;SDS011;5479;52.046;6.314;2022-08-02T10:41:40;6.78;;;3.40;;
10851;SDS011;5479;52.046;6.314;2022-08-02T10:44:21;5.72;;;3.50;;
10851;SDS011;5479;52.046;6.314;2022-08-02T10:49:49;6.93;;;3.30;;
10851;SDS011;5479;52.046;6.314;2022-08-02T10:52:18;4.88;;;2.80;;
10851;SDS011;5479;52.046;6.314;2022-08-02T10:54:48;6.30;;;2.75;;
10851;SDS011;5479;52.046;6.314;2022-08-02T10:57:22;5.15;;;2.60;;
10851;SDS011;5479;52.046;6.314;2022-08-02T10:59:54;6.32;;;3.13;;
10851;SDS011;5479;52.046;6.314;2022-08-02T11:02:39;4.22;;;2.60;;
10851;SDS011;5479;52.046;6.314;2022-08-02T11:05:09;5.55;;;2.95;;
10851;SDS011;5479;52.046;6.314;2022-08-02T11:07:44;3.47;;;2.47;;
10851;SDS011;5479;52.046;6.314;2022-08-02T11:10:29;3.67;;;2.50;;
10851;SDS011;5479;52.046;6.314;2022-08-02T11:13:02;3.95;;;2.28;;
10851;SDS011;5479;52.046;6.314;2022-08-02T11:15:46;5.05;;;2.20;;
10851;SDS011;5479;52.046;6.314;2022-08-02T11:18:19;3.53;;;2.20;;
10851;SDS011;5479;52.046;6.314;2022-08-02T11:20:56;6.82;;;2.70;;
10851;SDS011;5479;52.046;6.314;2022-08-02T11:23:50;3.97;;;2.60;;
10851;SDS011;5479;52.046;6.314;2022-08-02T11:29:10;4.55;;;2.88;;
10851;SDS011;5479;52.046;6.314;2022-08-02T11:31:39;4.55;;;2.67;;
10851;SDS011;5479;52.046;6.314;2022-08-02T11:34:08;5.13;;;2.45;;
10851;SDS011;5479;52.046;6.314;2022-08-02T11:36:45;4.13;;;2.50;;
10851;SDS011;5479;52.046;6.314;2022-08-02T11:39:14;4.85;;;2.80;;
10851;SDS011;5479;52.046;6.314;2022-08-02T11:41:47;5.13;;;2.50;;
10851;SDS011;5479;52.046;6.314;2022-08-02T11:44:16;3.85;;;2.10;;
10851;SDS011;5479;52.046;6.314;2022-08-02T11:46:45;2.40;;;2.05;;
10851;SDS011;5479;52.046;6.314;2022-08-02T11:49:20;5.85;;;2.40;;
10851;SDS011;5479;52.046;6.314;2022-08-02T11:51:53;5.43;;;2.00;;
10851;SDS011;5479;52.046;6.314;2022-08-02T11:54:27;3.20;;;2.22;;
10851;SDS011;5479;52.046;6.314;2022-08-02T11:57:10;4.75;;;2.00;;
10851;SDS011;5479;52.046;6.314;2022-08-02T11:59:38;2.90;;;2.08;;
10851;SDS011;5479;52.046;6.314;2022-08-02T12:02:07;4.93;;;2.25;;
10851;SDS011;5479;52.046;6.314;2022-08-02T12:04:36;7.45;;;2.30;;
10851;SDS011;5479;52.046;6.314;2022-08-02T12:07:06;3.97;;;2.00;;
10851;SDS011;5479;52.046;6.314;2022-08-02T12:09:35;3.72;;;2.20;;
10851;SDS011;5479;52.046;6.314;2022-08-02T12:12:03;4.97;;;2.25;;
10851;SDS011;5479;52.046;6.314;2022-08-02T12:14:31;3.13;;;2.10;;
10851;SDS011;5479;52.046;6.314;2022-08-02T12:17:09;6.18;;;2.30;;
10851;SDS011;5479;52.046;6.314;2022-08-02T12:19:54;4.05;;;1.90;;
10851;SDS011;5479;52.046;6.314;2022-08-02T12:22:24;4.07;;;1.98;;
10851;SDS011;5479;52.046;6.314;2022-08-02T12:24:54;4.20;;;2.38;;
10851;SDS011;5479;52.046;6.314;2022-08-02T12:27:31;2.65;;;1.90;;
10851;SDS011;5479;52.046;6.314;2022-08-02T12:30:02;3.50;;;2.33;;
10851;SDS011;5479;52.046;6.314;2022-08-02T12:32:34;7.53;;;2.20;;
10851;SDS011;5479;52.046;6.314;2022-08-02T12:35:04;9.63;;;2.92;;
10851;SDS011;5479;52.046;6.314;2022-08-02T12:37:38;28.80;;;4.97;;
10851;SDS011;5479;52.046;6.314;2022-08-02T12:40:17;3.50;;;2.20;;
10851;SDS011;5479;52.046;6.314;2022-08-02T12:42:50;4.55;;;2.10;;
10851;SDS011;5479;52.046;6.314;2022-08-02T12:45:19;3.38;;;2.20;;
10851;SDS011;5479;52.046;6.314;2022-08-02T12:47:48;4.32;;;1.88;;
10851;SDS011;5479;52.046;6.314;2022-08-02T12:50:18;3.35;;;2.08;;
10851;SDS011;5479;52.046;6.314;2022-08-02T12:52:49;3.50;;;2.13;;
10851;SDS011;5479;52.046;6.314;2022-08-02T12:55:18;3.50;;;2.00;;
10851;SDS011;5479;52.046;6.314;2022-08-02T12:57:51;5.18;;;2.28;;
10851;SDS011;5479;52.046;6.314;2022-08-02T13:00:21;4.05;;;2.20;;
10851;SDS011;5479;52.046;6.314;2022-08-02T13:02:50;4.75;;;2.10;;
10851;SDS011;5479;52.046;6.314;2022-08-02T13:05:19;4.63;;;2.10;;
10851;SDS011;5479;52.046;6.314;2022-08-02T13:07:47;4.60;;;2.20;;
10851;SDS011;5479;52.046;6.314;2022-08-02T13:10:16;5.95;;;2.15;;
10851;SDS011;5479;52.046;6.314;2022-08-02T13:12:44;6.28;;;2.28;;
10851;SDS011;5479;52.046;6.314;2022-08-02T13:15:12;3.58;;;2.05;;
10851;SDS011;5479;52.046;6.314;2022-08-02T13:17:40;5.50;;;2.45;;
10851;SDS011;5479;52.046;6.314;2022-08-02T13:20:08;4.07;;;2.10;;
10851;SDS011;5479;52.046;6.314;2022-08-02T13:22:36;2.92;;;1.90;;
10851;SDS011;5479;52.046;6.314;2022-08-02T13:25:06;3.78;;;2.40;;
10851;SDS011;5479;52.046;6.314;2022-08-02T13:27:34;3.92;;;2.10;;
10851;SDS011;5479;52.046;6.314;2022-08-02T13:30:04;4.25;;;2.10;;
10851;SDS011;5479;52.046;6.314;2022-08-02T13:32:33;4.38;;;2.00;;
10851;SDS011;5479;52.046;6.314;2022-08-02T13:35:00;4.43;;;2.00;;
10851;SDS011;5479;52.046;6.314;2022-08-02T13:37:28;4.78;;;2.05;;
10851;SDS011;5479;52.046;6.314;2022-08-02T13:39:59;2.90;;;2.22;;
10851;SDS011;5479;52.046;6.314;2022-08-02T13:42:28;2.95;;;1.90;;
10851;SDS011;5479;52.046;6.314;2022-08-02T13:44:56;4.15;;;2.00;;
10851;SDS011;5479;52.046;6.314;2022-08-02T13:47:24;3.58;;;1.90;;
10851;SDS011;5479;52.046;6.314;2022-08-02T13:49:52;4.43;;;2.20;;
10851;SDS011;5479;52.046;6.314;2022-08-02T15:07:16;2.65;;;1.70;;
10851;SDS011;5479;52.046;6.314;2022-08-02T15:09:44;3.28;;;1.90;;
10851;SDS011;5479;52.046;6.314;2022-08-02T15:12:12;3.13;;;1.73;;
10851;SDS011;5479;52.046;6.314;2022-08-02T15:14:41;4.47;;;1.85;;
10851;SDS011;5479;52.046;6.314;2022-08-02T15:17:10;3.60;;;1.92;;
10851;SDS011;5479;52.046;6.314;2022-08-02T15:19:38;4.22;;;2.10;;
10851;SDS011;5479;52.046;6.314;2022-08-02T15:22:06;4.47;;;1.90;;
10851;SDS011;5479;52.046;6.314;2022-08-02T15:24:36;3.13;;;1.92;;
10851;SDS011;5479;52.046;6.314;2022-08-02T15:27:04;4.20;;;1.83;;
10851;SDS011;5479;52.046;6.314;2022-08-02T15:29:38;3.63;;;1.90;;
10851;SDS011;5479;52.046;6.314;2022-08-02T15:32:07;4.20;;;2.00;;
10851;SDS011;5479;52.046;6.314;2022-08-02T15:34:35;3.70;;;1.90;;
10851;SDS011;5479;52.046;6.314;2022-08-02T15:37:03;3.92;;;1.92;;
10851;SDS011;5479;52.046;6.314;2022-08-02T15:39:31;5.13;;;1.80;;
10851;SDS011;5479;52.046;6.314;2022-08-02T15:42:01;3.20;;;1.73;;
10851;SDS011;5479;52.046;6.314;2022-08-02T15:44:32;3.88;;;1.90;;
10851;SDS011;5479;52.046;6.314;2022-08-02T15:46:59;3.03;;;1.65;;
10851;SDS011;5479;52.046;6.314;2022-08-02T15:49:28;3.05;;;1.90;;
10851;SDS011;5479;52.046;6.314;2022-08-02T15:51:56;3.38;;;1.80;;
10851;SDS011;5479;52.046;6.314;2022-08-02T15:54:24;3.55;;;2.00;;
10851;SDS011;5479;52.046;6.314;2022-08-02T15:56:52;3.00;;;1.70;;
10851;SDS011;5479;52.046;6.314;2022-08-02T15:59:21;3.38;;;1.90;;
10851;SDS011;5479;52.046;6.314;2022-08-02T16:01:49;3.17;;;1.90;;
10851;SDS011;5479;52.046;6.314;2022-08-02T16:04:17;3.08;;;1.95;;
10851;SDS011;5479;52.046;6.314;2022-08-02T16:06:45;3.13;;;2.10;;
10851;SDS011;5479;52.046;6.314;2022-08-02T16:09:13;3.05;;;1.98;;
10851;SDS011;5479;52.046;6.314;2022-08-02T16:11:41;4.38;;;2.00;;
10851;SDS011;5479;52.046;6.314;2022-08-02T16:14:08;2.63;;;1.80;;
10851;SDS011;5479;52.046;6.314;2022-08-02T16:16:38;6.32;;;1.77;;
10851;SDS011;5479;52.046;6.314;2022-08-02T16:19:06;3.00;;;1.90;;
10851;SDS011;5479;52.046;6.314;2022-08-02T16:21:34;5.30;;;2.17;;
10851;SDS011;5479;52.046;6.314;2022-08-02T16:24:04;4.40;;;2.05;;
10851;SDS011;5479;52.046;6.314;2022-08-02T16:26:33;5.88;;;2.40;;
10851;SDS011;5479;52.046;6.314;2022-08-02T16:29:01;5.70;;;2.10;;
10851;SDS011;5479;52.046;6.314;2022-08-02T16:31:30;4.15;;;1.95;;
10851;SDS011;5479;52.046;6.314;2022-08-02T16:34:00;3.78;;;1.90;;
10851;SDS011;5479;52.046;6.314;2022-08-02T16:36:28;4.50;;;2.10;;
10851;SDS011;5479;52.046;6.314;2022-08-02T16:38:57;4.05;;;1.85;;
10851;SDS011;5479;52.046;6.314;2022-08-02T16:41:25;4.28;;;2.00;;